sensor_id;sensor_type;location;lat;lon;timestamp;pressure;altitude;pressure_sealevel;temperature;humidity
34197;BME280;36594;45.192;5.722;2023-04-25T00:00:44;98772.66;;;24.37;36.92
34197;BME280;36594;45.192;5.722;2023-04-25T00:03:32;98772.94;;;24.36;36.88
34197;BME280;36594;45.192;5.722;2023-04-25T00:06:22;98783.09;;;24.35;36.90
34197;BME280;36594;45.192;5.722;2023-04-25T00:09:12;98774.02;;;24.35;36.92
34197;BME280;36594;45.192;5.722;2023-04-25T00:12:00;98765.78;;;24.35;36.94
34197;BME280;36594;45.192;5.722;2023-04-25T00:14:50;98763.58;;;24.34;37.00
34197;BME280;36594;45.192;5.722;2023-04-25T00:17:40;98772.64;;;24.35;36.93
34197;BME280;36594;45.192;5.722;2023-04-25T00:20:28;98769.36;;;24.35;36.91
34197;BME280;36594;45.192;5.722;2023-04-25T00:23:17;98764.14;;;24.34;36.89
34197;BME280;36594;45.192;5.722;2023-04-25T00:26:06;98765.78;;;24.35;36.83
34197;BME280;36594;45.192;5.722;2023-04-25T00:28:54;98760.05;;;24.36;36.81
34197;BME280;36594;45.192;5.722;2023-04-25T00:31:43;98754.56;;;24.36;36.77
34197;BME280;36594;45.192;5.722;2023-04-25T00:34:32;98754.82;;;24.37;36.74
34197;BME280;36594;45.192;5.722;2023-04-25T00:37:20;98755.12;;;24.38;36.77
34197;BME280;36594;45.192;5.722;2023-04-25T00:40:09;98756.73;;;24.37;36.79
34197;BME280;36594;45.192;5.722;2023-04-25T00:42:58;98755.63;;;24.35;36.78
34197;BME280;36594;45.192;5.722;2023-04-25T00:45:48;98761.40;;;24.34;36.75
34197;BME280;36594;45.192;5.722;2023-04-25T00:48:37;98761.64;;;24.32;36.82
34197;BME280;36594;45.192;5.722;2023-04-25T00:51:26;98759.73;;;24.33;36.80
34197;BME280;36594;45.192;5.722;2023-04-25T00:54:15;98749.84;;;24.34;36.78
34197;BME280;36594;45.192;5.722;2023-04-25T00:57:05;98742.45;;;24.35;36.77
34197;BME280;36594;45.192;5.722;2023-04-25T00:59:54;98737.50;;;24.34;36.74
34197;BME280;36594;45.192;5.722;2023-04-25T01:02:44;98728.72;;;24.35;36.76
34197;BME280;36594;45.192;5.722;2023-04-25T01:05:33;98719.41;;;24.36;36.72
34197;BME280;36594;45.192;5.722;2023-04-25T01:08:23;98725.15;;;24.34;36.78
34197;BME280;36594;45.192;5.722;2023-04-25T01:11:13;98723.52;;;24.33;36.73
34197;BME280;36594;45.192;5.722;2023-04-25T01:14:02;98725.15;;;24.34;36.77
34197;BME280;36594;45.192;5.722;2023-04-25T01:16:51;98728.17;;;24.33;36.73
34197;BME280;36594;45.192;5.722;2023-04-25T01:19:40;98725.16;;;24.32;36.76
34197;BME280;36594;45.192;5.722;2023-04-25T01:22:29;98718.28;;;24.34;36.74
34197;BME280;36594;45.192;5.722;2023-04-25T01:25:19;98717.75;;;24.35;36.78
34197;BME280;36594;45.192;5.722;2023-04-25T01:28:08;98718.02;;;24.33;36.71
34197;BME280;36594;45.192;5.722;2023-04-25T01:30:57;98721.33;;;24.35;36.75
34197;BME280;36594;45.192;5.722;2023-04-25T01:33:46;98718.28;;;24.34;36.71
34197;BME280;36594;45.192;5.722;2023-04-25T01:36:35;98716.91;;;24.34;36.71
34197;BME280;36594;45.192;5.722;2023-04-25T01:39:24;98719.65;;;24.29;36.82
34197;BME280;36594;45.192;5.722;2023-04-25T01:42:13;98716.91;;;24.29;36.84
34197;BME280;36594;45.192;5.722;2023-04-25T01:45:02;98714.96;;;24.30;36.76
34197;BME280;36594;45.192;5.722;2023-04-25T01:47:50;98717.73;;;24.32;36.79
34197;BME280;36594;45.192;5.722;2023-04-25T01:50:40;98718.02;;;24.33;36.72
34197;BME280;36594;45.192;5.722;2023-04-25T01:53:30;98713.34;;;24.31;36.73
34197;BME280;36594;45.192;5.722;2023-04-25T01:56:20;98715.27;;;24.33;36.71
34197;BME280;36594;45.192;5.722;2023-04-25T01:59:08;98712.80;;;24.34;36.71
34197;BME280;36594;45.192;5.722;2023-04-25T02:01:58;98711.99;;;24.34;36.68
34197;BME280;36594;45.192;5.722;2023-04-25T02:04:48;98711.42;;;24.34;36.66
34197;BME280;36594;45.192;5.722;2023-04-25T02:07:37;98708.41;;;24.33;36.68
34197;BME280;36594;45.192;5.722;2023-04-25T02:10:25;98704.56;;;24.34;36.66
34197;BME280;36594;45.192;5.722;2023-04-25T02:13:31;98704.85;;;24.35;36.67
34197;BME280;36594;45.192;5.722;2023-04-25T02:16:24;98698.80;;;24.33;36.68
34197;BME280;36594;45.192;5.722;2023-04-25T02:19:13;98696.59;;;24.33;36.66
34197;BME280;36594;45.192;5.722;2023-04-25T02:22:01;98690.28;;;24.32;36.68
34197;BME280;36594;45.192;5.722;2023-04-25T02:24:49;98685.90;;;24.31;36.68
34197;BME280;36594;45.192;5.722;2023-04-25T02:27:38;98688.37;;;24.33;36.63
34197;BME280;36594;45.192;5.722;2023-04-25T02:30:28;98692.20;;;24.29;36.64
34197;BME280;36594;45.192;5.722;2023-04-25T02:33:16;98692.20;;;24.29;36.72
34197;BME280;36594;45.192;5.722;2023-04-25T02:36:05;98694.13;;;24.31;36.74
34197;BME280;36594;45.192;5.722;2023-04-25T02:38:54;98698.25;;;24.31;36.82
34197;BME280;36594;45.192;5.722;2023-04-25T02:41:42;98704.28;;;24.31;36.81
34197;BME280;36594;45.192;5.722;2023-04-25T02:44:30;98701.81;;;24.29;36.87
34197;BME280;36594;45.192;5.722;2023-04-25T02:47:19;98695.50;;;24.31;36.96
34197;BME280;36594;45.192;5.722;2023-04-25T02:50:08;98697.95;;;24.30;36.82
34197;BME280;36594;45.192;5.722;2023-04-25T02:52:57;98700.16;;;24.31;36.82
34197;BME280;36594;45.192;5.722;2023-04-25T02:55:47;98694.13;;;24.31;36.73
34197;BME280;36594;45.192;5.722;2023-04-25T02:58:36;98692.20;;;24.29;36.83
34197;BME280;36594;45.192;5.722;2023-04-25T03:01:24;98690.53;;;24.28;36.79
34197;BME280;36594;45.192;5.722;2023-04-25T03:04:12;98692.98;;;24.27;36.92
34197;BME280;36594;45.192;5.722;2023-04-25T03:07:01;98691.61;;;24.27;36.91
34197;BME280;36594;45.192;5.722;2023-04-25T03:09:49;98695.19;;;24.28;36.84
34197;BME280;36594;45.192;5.722;2023-04-25T03:12:37;98697.40;;;24.28;36.90
34197;BME280;36594;45.192;5.722;2023-04-25T03:15:26;98700.14;;;24.28;36.92
34197;BME280;36594;45.192;5.722;2023-04-25T03:18:15;98695.48;;;24.29;36.86
34197;BME280;36594;45.192;5.722;2023-04-25T03:21:03;98695.19;;;24.28;36.90
34197;BME280;36594;45.192;5.722;2023-04-25T03:23:52;98687.25;;;24.29;36.92
34197;BME280;36594;45.192;5.722;2023-04-25T03:26:41;98690.81;;;24.27;36.86
34197;BME280;36594;45.192;5.722;2023-04-25T03:29:29;98691.08;;;24.28;37.02
34197;BME280;36594;45.192;5.722;2023-04-25T03:32:19;98687.25;;;24.29;36.96
34197;BME280;36594;45.192;5.722;2023-04-25T03:35:08;98694.11;;;24.29;36.99
34197;BME280;36594;45.192;5.722;2023-04-25T03:37:56;98691.38;;;24.29;36.99
34197;BME280;36594;45.192;5.722;2023-04-25T03:40:46;98688.87;;;24.27;36.86
34197;BME280;36594;45.192;5.722;2023-04-25T03:43:39;98688.33;;;24.28;36.86
34197;BME280;36594;45.192;5.722;2023-04-25T03:46:30;98689.98;;;24.26;36.82
34197;BME280;36594;45.192;5.722;2023-04-25T03:49:18;98694.09;;;24.26;36.78
34197;BME280;36594;45.192;5.722;2023-04-25T03:52:20;98680.63;;;24.27;36.78
34197;BME280;36594;45.192;5.722;2023-04-25T03:55:09;98680.65;;;24.25;36.91
34197;BME280;36594;45.192;5.722;2023-04-25T03:57:58;98678.70;;;24.25;36.78
34197;BME280;36594;45.192;5.722;2023-04-25T04:00:47;98680.38;;;24.26;36.67
34197;BME280;36594;45.192;5.722;2023-04-25T04:03:36;98665.81;;;24.26;36.57
34197;BME280;36594;45.192;5.722;2023-04-25T04:06:25;98660.05;;;24.27;36.54
34197;BME280;36594;45.192;5.722;2023-04-25T04:09:15;98669.66;;;24.27;36.46
34197;BME280;36594;45.192;5.722;2023-04-25T04:12:05;98674.06;;;24.28;36.13
34197;BME280;36594;45.192;5.722;2023-04-25T04:14:55;98659.49;;;24.25;36.21
34197;BME280;36594;45.192;5.722;2023-04-25T04:17:44;98673.77;;;24.22;36.31
34197;BME280;36594;45.192;5.722;2023-04-25T04:20:34;98679.78;;;24.19;36.35
34197;BME280;36594;45.192;5.722;2023-04-25T04:23:22;98675.92;;;24.20;36.39
34197;BME280;36594;45.192;5.722;2023-04-25T04:26:11;98683.37;;;24.22;36.34
34197;BME280;36594;45.192;5.722;2023-04-25T04:29:07;98685.01;;;24.23;36.27
34197;BME280;36594;45.192;5.722;2023-04-25T04:32:02;98686.14;;;24.25;36.23
34197;BME280;36594;45.192;5.722;2023-04-25T04:34:53;98682.56;;;24.24;36.18
34197;BME280;36594;45.192;5.722;2023-04-25T04:37:43;98684.77;;;24.25;36.13
34197;BME280;36594;45.192;5.722;2023-04-25T04:40:34;98695.47;;;24.26;36.10
34197;BME280;36594;45.192;5.722;2023-04-25T04:43:24;98700.95;;;24.26;36.09
34197;BME280;36594;45.192;5.722;2023-04-25T04:46:14;98702.03;;;24.25;36.08
34197;BME280;36594;45.192;5.722;2023-04-25T04:49:23;98714.38;;;24.25;36.02
34197;BME280;36594;45.192;5.722;2023-04-25T04:52:16;98727.55;;;24.23;36.10
34197;BME280;36594;45.192;5.722;2023-04-25T04:55:15;98720.44;;;24.25;36.10
34197;BME280;36594;45.192;5.722;2023-04-25T04:58:14;98729.48;;;24.25;36.04
34197;BME280;36594;45.192;5.722;2023-04-25T05:01:09;98729.45;;;24.23;36.10
34197;BME280;36594;45.192;5.722;2023-04-25T05:04:02;98727.55;;;24.23;36.08
34197;BME280;36594;45.192;5.722;2023-04-25T05:07:01;98733.84;;;24.21;36.02
34197;BME280;36594;45.192;5.722;2023-04-25T05:09:51;98735.76;;;24.21;36.00
34197;BME280;36594;45.192;5.722;2023-04-25T05:12:57;98736.05;;;24.22;35.98
34197;BME280;36594;45.192;5.722;2023-04-25T05:15:59;98743.16;;;24.20;35.96
34197;BME280;36594;45.192;5.722;2023-04-25T05:18:49;98773.03;;;24.14;35.65
34197;BME280;36594;45.192;5.722;2023-04-25T05:21:39;98766.62;;;24.03;35.34
34197;BME280;36594;45.192;5.722;2023-04-25T05:24:31;98780.72;;;23.88;32.55
34197;BME280;36594;45.192;5.722;2023-04-25T05:27:22;98781.21;;;23.80;31.53
34197;BME280;36594;45.192;5.722;2023-04-25T05:30:30;98790.42;;;23.71;31.54
34197;BME280;36594;45.192;5.722;2023-04-25T05:33:26;98772.79;;;23.62;31.75
34197;BME280;36594;45.192;5.722;2023-04-25T05:36:14;98776.69;;;23.66;31.99
34197;BME280;36594;45.192;5.722;2023-04-25T05:39:03;98783.84;;;23.70;32.17
34197;BME280;36594;45.192;5.722;2023-04-25T05:41:56;98788.81;;;23.73;32.40
34197;BME280;36594;45.192;5.722;2023-04-25T05:45:03;98794.33;;;23.75;32.67
34197;BME280;36594;45.192;5.722;2023-04-25T05:48:08;98800.86;;;23.72;33.40
34197;BME280;36594;45.192;5.722;2023-04-25T05:51:04;98805.84;;;23.75;33.71
34197;BME280;36594;45.192;5.722;2023-04-25T05:54:11;98797.61;;;23.75;33.98
34197;BME280;36594;45.192;5.722;2023-04-25T05:57:00;98802.59;;;23.78;34.16
34197;BME280;36594;45.192;5.722;2023-04-25T05:59:50;98805.35;;;23.83;34.16
34197;BME280;36594;45.192;5.722;2023-04-25T06:02:40;98808.95;;;23.86;34.22
34197;BME280;36594;45.192;5.722;2023-04-25T06:05:28;98816.11;;;23.87;34.29
34197;BME280;36594;45.192;5.722;2023-04-25T06:08:17;98809.79;;;23.86;34.38
34197;BME280;36594;45.192;5.722;2023-04-25T06:11:06;98811.70;;;23.86;34.51
34197;BME280;36594;45.192;5.722;2023-04-25T06:13:54;98815.01;;;23.88;34.63
34197;BME280;36594;45.192;5.722;2023-04-25T06:16:43;98823.23;;;23.88;34.83
34197;BME280;36594;45.192;5.722;2023-04-25T06:19:33;98826.57;;;23.92;34.88
34197;BME280;36594;45.192;5.722;2023-04-25T06:22:22;98833.73;;;23.93;34.89
34197;BME280;36594;45.192;5.722;2023-04-25T06:25:11;98827.44;;;23.95;34.86
34197;BME280;36594;45.192;5.722;2023-04-25T06:27:59;98826.59;;;23.95;34.90
34197;BME280;36594;45.192;5.722;2023-04-25T06:30:48;98825.25;;;23.97;34.89
34197;BME280;36594;45.192;5.722;2023-04-25T06:33:38;98833.25;;;23.99;34.94
34197;BME280;36594;45.192;5.722;2023-04-25T06:36:26;98827.76;;;23.99;34.97
34197;BME280;36594;45.192;5.722;2023-04-25T06:39:16;98830.77;;;24.00;34.98
34197;BME280;36594;45.192;5.722;2023-04-25T06:42:05;98833.52;;;24.00;34.98
34197;BME280;36594;45.192;5.722;2023-04-25T06:45:13;98832.70;;;24.02;35.06
34197;BME280;36594;45.192;5.722;2023-04-25T06:48:01;98833.48;;;23.97;35.18
34197;BME280;36594;45.192;5.722;2023-04-25T06:50:50;98839.80;;;23.98;35.20
34197;BME280;36594;45.192;5.722;2023-04-25T06:53:39;98832.95;;;23.98;35.22
34197;BME280;36594;45.192;5.722;2023-04-25T06:56:30;98836.25;;;24.00;35.25
34197;BME280;36594;45.192;5.722;2023-04-25T06:59:26;98839.27;;;23.98;35.29
34197;BME280;36594;45.192;5.722;2023-04-25T07:02:14;98832.38;;;23.96;35.35
34197;BME280;36594;45.192;5.722;2023-04-25T07:05:04;98829.10;;;23.96;35.39
34197;BME280;36594;45.192;5.722;2023-04-25T07:07:53;98842.84;;;23.99;35.38
34197;BME280;36594;45.192;5.722;2023-04-25T07:10:42;98835.39;;;23.97;35.39
34197;BME280;36594;45.192;5.722;2023-04-25T07:13:31;98838.94;;;23.95;35.46
34197;BME280;36594;45.192;5.722;2023-04-25T07:16:20;98842.80;;;23.94;35.58
34197;BME280;36594;45.192;5.722;2023-04-25T07:19:10;98853.52;;;23.98;35.57
34197;BME280;36594;45.192;5.722;2023-04-25T07:21:58;98860.68;;;23.99;35.64
34197;BME280;36594;45.192;5.722;2023-04-25T07:24:47;98857.64;;;23.98;35.65
34197;BME280;36594;45.192;5.722;2023-04-25T07:27:36;98865.03;;;23.97;35.72
34197;BME280;36594;45.192;5.722;2023-04-25T07:30:26;98871.66;;;23.99;35.71
34197;BME280;36594;45.192;5.722;2023-04-25T07:33:15;98862.56;;;23.96;35.79
34197;BME280;36594;45.192;5.722;2023-04-25T07:36:05;98861.22;;;23.98;35.83
34197;BME280;36594;45.192;5.722;2023-04-25T07:38:54;98867.80;;;24.00;35.83
34197;BME280;36594;45.192;5.722;2023-04-25T07:41:43;98871.09;;;23.99;35.82
34197;BME280;36594;45.192;5.722;2023-04-25T07:44:34;98863.98;;;24.01;35.88
34197;BME280;36594;45.192;5.722;2023-04-25T07:47:27;98863.42;;;23.99;35.82
34197;BME280;36594;45.192;5.722;2023-04-25T07:50:17;98873.03;;;23.99;35.84
34197;BME280;36594;45.192;5.722;2023-04-25T07:53:07;98874.13;;;24.00;35.87
34197;BME280;36594;45.192;5.722;2023-04-25T07:55:57;98880.42;;;23.98;35.88
34197;BME280;36594;45.192;5.722;2023-04-25T07:58:47;98877.95;;;23.99;35.83
34197;BME280;36594;45.192;5.722;2023-04-25T08:01:35;98888.92;;;23.99;35.85
34197;BME280;36594;45.192;5.722;2023-04-25T08:04:25;98883.70;;;23.98;35.83
34197;BME280;36594;45.192;5.722;2023-04-25T08:07:16;98890.05;;;24.01;35.85
34197;BME280;36594;45.192;5.722;2023-04-25T08:10:12;98894.17;;;24.01;35.77
34197;BME280;36594;45.192;5.722;2023-04-25T08:13:01;98893.30;;;23.98;35.85
34197;BME280;36594;45.192;5.722;2023-04-25T08:15:50;98901.27;;;23.99;35.89
34197;BME280;36594;45.192;5.722;2023-04-25T08:18:38;98904.81;;;23.97;35.89
34197;BME280;36594;45.192;5.722;2023-04-25T08:21:28;98911.70;;;24.00;35.90
34197;BME280;36594;45.192;5.722;2023-04-25T08:24:17;98907.32;;;23.99;35.90
34197;BME280;36594;45.192;5.722;2023-04-25T08:27:06;98908.42;;;24.00;35.88
34197;BME280;36594;45.192;5.722;2023-04-25T08:29:55;98907.31;;;24.01;35.87
34197;BME280;36594;45.192;5.722;2023-04-25T08:32:45;98905.67;;;24.00;35.91
34197;BME280;36594;45.192;5.722;2023-04-25T08:35:47;98911.43;;;24.01;35.88
34197;BME280;36594;45.192;5.722;2023-04-25T08:38:36;98903.20;;;23.99;35.90
34197;BME280;36594;45.192;5.722;2023-04-25T08:41:26;98905.38;;;23.99;35.86
34197;BME280;36594;45.192;5.722;2023-04-25T08:44:17;98906.78;;;24.02;35.82
34197;BME280;36594;45.192;5.722;2023-04-25T08:47:06;98910.63;;;24.01;35.82
34197;BME280;36594;45.192;5.722;2023-04-25T08:49:56;98926.28;;;24.03;35.78
34197;BME280;36594;45.192;5.722;2023-04-25T08:52:47;98930.91;;;24.00;35.83
34197;BME280;36594;45.192;5.722;2023-04-25T08:55:40;98944.95;;;24.03;35.80
34197;BME280;36594;45.192;5.722;2023-04-25T08:58:31;98938.33;;;24.02;35.82
34197;BME280;36594;45.192;5.722;2023-04-25T09:01:20;98944.95;;;24.03;35.82
34197;BME280;36594;45.192;5.722;2023-04-25T09:04:12;98948.27;;;24.05;35.83
34197;BME280;36594;45.192;5.722;2023-04-25T09:07:01;98945.76;;;24.04;35.86
34197;BME280;36594;45.192;5.722;2023-04-25T09:09:50;98953.98;;;24.04;35.86
34197;BME280;36594;45.192;5.722;2023-04-25T09:12:39;98958.07;;;24.01;35.83
34197;BME280;36594;45.192;5.722;2023-04-25T09:15:28;98961.12;;;24.02;35.81
34197;BME280;36594;45.192;5.722;2023-04-25T09:18:32;98964.16;;;24.03;35.86
34197;BME280;36594;45.192;5.722;2023-04-25T09:21:23;98967.70;;;24.04;35.83
34197;BME280;36594;45.192;5.722;2023-04-25T09:24:11;98969.92;;;24.04;35.80
34197;BME280;36594;45.192;5.722;2023-04-25T09:27:02;98964.22;;;24.06;35.81
34197;BME280;36594;45.192;5.722;2023-04-25T09:29:58;98958.47;;;24.08;35.78
34197;BME280;36594;45.192;5.722;2023-04-25T09:32:48;98959.84;;;24.08;35.76
34197;BME280;36594;45.192;5.722;2023-04-25T09:35:39;98970.28;;;24.08;35.81
34197;BME280;36594;45.192;5.722;2023-04-25T09:38:39;98953.55;;;24.10;35.81
34197;BME280;36594;45.192;5.722;2023-04-25T09:41:25;98951.34;;;24.09;35.80
34197;BME280;36594;45.192;5.722;2023-04-25T09:44:15;98947.49;;;24.08;35.88
34197;BME280;36594;45.192;5.722;2023-04-25T09:47:03;98953.02;;;24.10;35.79
34197;BME280;36594;45.192;5.722;2023-04-25T09:49:53;98960.14;;;24.11;35.78
34197;BME280;36594;45.192;5.722;2023-04-25T09:52:43;98954.66;;;24.11;35.75
34197;BME280;36594;45.192;5.722;2023-04-25T09:55:34;98957.39;;;24.11;35.75
34197;BME280;36594;45.192;5.722;2023-04-25T09:58:25;98961.52;;;24.11;35.71
34197;BME280;36594;45.192;5.722;2023-04-25T10:01:15;98952.17;;;24.10;35.81
34197;BME280;36594;45.192;5.722;2023-04-25T10:04:06;98956.86;;;24.12;35.73
34197;BME280;36594;45.192;5.722;2023-04-25T10:06:59;98957.70;;;24.12;35.72
34197;BME280;36594;45.192;5.722;2023-04-25T10:09:49;98955.22;;;24.11;35.75
34197;BME280;36594;45.192;5.722;2023-04-25T10:12:40;98947.80;;;24.11;35.74
34197;BME280;36594;45.192;5.722;2023-04-25T10:15:32;98950.54;;;24.11;35.76
34197;BME280;36594;45.192;5.722;2023-04-25T10:18:21;98949.47;;;24.12;35.66
34197;BME280;36594;45.192;5.722;2023-04-25T10:21:10;98943.97;;;24.12;35.65
34197;BME280;36594;45.192;5.722;2023-04-25T10:24:00;98947.02;;;24.13;35.66
34197;BME280;36594;45.192;5.722;2023-04-25T10:26:50;98945.65;;;24.13;35.67
34197;BME280;36594;45.192;5.722;2023-04-25T10:29:41;98949.22;;;24.16;35.62
34197;BME280;36594;45.192;5.722;2023-04-25T10:32:31;98942.91;;;24.16;35.61
34197;BME280;36594;45.192;5.722;2023-04-25T10:35:26;98935.48;;;24.14;35.66
34197;BME280;36594;45.192;5.722;2023-04-25T10:38:15;98940.16;;;24.13;35.66
34197;BME280;36594;45.192;5.722;2023-04-25T10:41:10;98929.72;;;24.13;35.63
34197;BME280;36594;45.192;5.722;2023-04-25T10:44:03;98926.44;;;24.13;35.67
34197;BME280;36594;45.192;5.722;2023-04-25T10:46:58;98929.72;;;24.13;35.66
34197;BME280;36594;45.192;5.722;2023-04-25T10:49:48;98924.20;;;24.10;35.66
34197;BME280;36594;45.192;5.722;2023-04-25T10:52:39;98930.23;;;24.10;35.64
34197;BME280;36594;45.192;5.722;2023-04-25T10:55:48;98918.98;;;24.11;35.61
34197;BME280;36594;45.192;5.722;2023-04-25T10:58:22;98920.66;;;24.12;35.57
34197;BME280;36594;45.192;5.722;2023-04-25T11:01:11;98921.52;;;24.15;35.57
34197;BME280;36594;45.192;5.722;2023-04-25T11:04:00;98911.34;;;24.13;35.61
34197;BME280;36594;45.192;5.722;2023-04-25T11:09:53;98914.86;;;24.11;35.64
34197;BME280;36594;45.192;5.722;2023-04-25T11:12:42;98911.28;;;24.08;35.67
34197;BME280;36594;45.192;5.722;2023-04-25T11:15:30;98904.43;;;24.08;35.67
34197;BME280;36594;45.192;5.722;2023-04-25T11:18:19;98907.98;;;24.06;35.72
34197;BME280;36594;45.192;5.722;2023-04-25T11:21:07;98906.36;;;24.10;35.63
34197;BME280;36594;45.192;5.722;2023-04-25T11:23:57;98888.80;;;24.11;35.60
34197;BME280;36594;45.192;5.722;2023-04-25T11:26:46;98892.11;;;24.11;35.61
34197;BME280;36594;45.192;5.722;2023-04-25T11:29:38;98888.53;;;24.10;35.61
34197;BME280;36594;45.192;5.722;2023-04-25T11:32:26;98889.63;;;24.12;35.56
34197;BME280;36594;45.192;5.722;2023-04-25T11:35:16;98876.75;;;24.12;35.54
34197;BME280;36594;45.192;5.722;2023-04-25T11:38:04;98883.61;;;24.12;35.46
34197;BME280;36594;45.192;5.722;2023-04-25T11:40:53;98874.86;;;24.15;35.48
34197;BME280;36594;45.192;5.722;2023-04-25T11:43:43;98871.02;;;24.16;35.45
34197;BME280;36594;45.192;5.722;2023-04-25T11:46:33;98868.56;;;24.17;35.44
34197;BME280;36594;45.192;5.722;2023-04-25T11:49:22;98871.55;;;24.16;35.40
34197;BME280;36594;45.192;5.722;2023-04-25T11:52:12;98879.78;;;24.16;35.42
34197;BME280;36594;45.192;5.722;2023-04-25T11:55:00;98881.42;;;24.14;35.43
34197;BME280;36594;45.192;5.722;2023-04-25T11:57:49;98887.19;;;24.13;35.45
34197;BME280;36594;45.192;5.722;2023-04-25T12:00:41;98886.91;;;24.14;35.41
34197;BME280;36594;45.192;5.722;2023-04-25T12:03:30;98881.42;;;24.14;35.36
34197;BME280;36594;45.192;5.722;2023-04-25T12:06:19;98882.27;;;24.15;35.32
34197;BME280;36594;45.192;5.722;2023-04-25T12:09:12;98872.93;;;24.13;35.30
34197;BME280;36594;45.192;5.722;2023-04-25T12:12:02;98870.75;;;24.15;35.28
34197;BME280;36594;45.192;5.722;2023-04-25T12:14:50;98868.25;;;24.14;35.28
34197;BME280;36594;45.192;5.722;2023-04-25T12:17:49;98863.59;;;24.14;35.27
34197;BME280;36594;45.192;5.722;2023-04-25T12:20:38;98868.27;;;24.16;35.26
34197;BME280;36594;45.192;5.722;2023-04-25T12:23:27;98868.55;;;24.15;35.21
34197;BME280;36594;45.192;5.722;2023-04-25T12:26:17;98866.88;;;24.14;35.25
34197;BME280;36594;45.192;5.722;2023-04-25T12:29:22;98871.82;;;24.14;35.22
34197;BME280;36594;45.192;5.722;2023-04-25T12:32:12;98866.61;;;24.13;35.26
34197;BME280;36594;45.192;5.722;2023-04-25T12:35:00;98883.91;;;24.13;35.23
34197;BME280;36594;45.192;5.722;2023-04-25T12:37:48;98876.23;;;24.15;35.17
34197;BME280;36594;45.192;5.722;2023-04-25T12:40:37;98870.75;;;24.15;35.13
34197;BME280;36594;45.192;5.722;2023-04-25T12:43:25;98864.42;;;24.15;35.14
34197;BME280;36594;45.192;5.722;2023-04-25T12:46:13;98863.31;;;24.16;35.10
34197;BME280;36594;45.192;5.722;2023-04-25T12:49:02;98856.20;;;24.15;35.09
34197;BME280;36594;45.192;5.722;2023-04-25T12:51:51;98872.12;;;24.15;35.05
34197;BME280;36594;45.192;5.722;2023-04-25T12:54:39;98866.90;;;24.16;35.06
34197;BME280;36594;45.192;5.722;2023-04-25T12:57:28;98869.64;;;24.16;35.09
34197;BME280;36594;45.192;5.722;2023-04-25T13:00:17;98866.36;;;24.17;35.05
34197;BME280;36594;45.192;5.722;2023-04-25T13:03:07;98859.77;;;24.15;35.05
34197;BME280;36594;45.192;5.722;2023-04-25T13:05:57;98869.91;;;24.15;35.09
34197;BME280;36594;45.192;5.722;2023-04-25T13:08:45;98874.59;;;24.17;35.07
34197;BME280;36594;45.192;5.722;2023-04-25T13:11:33;98860.03;;;24.16;35.02
34197;BME280;36594;45.192;5.722;2023-04-25T13:14:35;98858.40;;;24.15;35.03
34197;BME280;36594;45.192;5.722;2023-04-25T13:17:23;98869.94;;;24.17;35.01
34197;BME280;36594;45.192;5.722;2023-04-25T13:20:12;98875.43;;;24.17;35.01
34197;BME280;36594;45.192;5.722;2023-04-25T13:23:03;98866.90;;;24.16;35.03
34197;BME280;36594;45.192;5.722;2023-04-25T13:25:52;98859.77;;;24.15;35.02
34197;BME280;36594;45.192;5.722;2023-04-25T13:28:40;98858.94;;;24.15;35.05
34197;BME280;36594;45.192;5.722;2023-04-25T13:31:29;98860.03;;;24.16;35.04
34197;BME280;36594;45.192;5.722;2023-04-25T13:34:17;98852.94;;;24.18;35.02
34197;BME280;36594;45.192;5.722;2023-04-25T13:37:05;98858.16;;;24.19;34.98
34197;BME280;36594;45.192;5.722;2023-04-25T13:39:54;98851.00;;;24.18;34.95
34197;BME280;36594;45.192;5.722;2023-04-25T13:42:43;98861.16;;;24.20;34.92
34197;BME280;36594;45.192;5.722;2023-04-25T13:45:33;98852.37;;;24.18;34.81
34197;BME280;36594;45.192;5.722;2023-04-25T13:48:22;98847.98;;;24.17;34.78
34197;BME280;36594;45.192;5.722;2023-04-25T13:51:10;98841.39;;;24.18;34.80
34197;BME280;36594;45.192;5.722;2023-04-25T13:53:59;98849.09;;;24.19;34.66
34197;BME280;36594;45.192;5.722;2023-04-25T13:56:47;98840.31;;;24.19;34.66
34197;BME280;36594;45.192;5.722;2023-04-25T13:59:36;98841.39;;;24.18;34.57
34197;BME280;36594;45.192;5.722;2023-04-25T14:02:24;98833.73;;;24.18;34.51
34197;BME280;36594;45.192;5.722;2023-04-25T14:05:13;98832.63;;;24.19;34.56
34197;BME280;36594;45.192;5.722;2023-04-25T14:08:01;98832.34;;;24.20;34.50
34197;BME280;36594;45.192;5.722;2023-04-25T14:10:50;98836.20;;;24.19;34.40
34197;BME280;36594;45.192;5.722;2023-04-25T14:13:38;98819.73;;;24.19;34.48
34197;BME280;36594;45.192;5.722;2023-04-25T14:16:27;98821.62;;;24.16;34.34
34197;BME280;36594;45.192;5.722;2023-04-25T14:19:21;98824.66;;;24.17;34.37
34197;BME280;36594;45.192;5.722;2023-04-25T14:22:05;98815.62;;;24.19;34.26
34197;BME280;36594;45.192;5.722;2023-04-25T14:24:53;98813.69;;;24.17;34.07
34197;BME280;36594;45.192;5.722;2023-04-25T14:27:41;98803.27;;;24.19;34.22
34197;BME280;36594;45.192;5.722;2023-04-25T14:30:31;98793.92;;;24.20;34.25
34197;BME280;36594;45.192;5.722;2023-04-25T14:33:20;98787.64;;;24.20;34.16
34197;BME280;36594;45.192;5.722;2023-04-25T14:36:08;98818.11;;;24.23;34.17
34197;BME280;36594;45.192;5.722;2023-04-25T14:38:57;98801.62;;;24.21;34.19
34197;BME280;36594;45.192;5.722;2023-04-25T14:41:46;98810.69;;;24.21;34.23
34197;BME280;36594;45.192;5.722;2023-04-25T14:44:35;98810.39;;;24.20;34.30
34197;BME280;36594;45.192;5.722;2023-04-25T14:47:23;98805.50;;;24.22;34.30
34197;BME280;36594;45.192;5.722;2023-04-25T14:50:12;98806.59;;;24.24;34.25
34197;BME280;36594;45.192;5.722;2023-04-25T14:53:00;98813.76;;;24.25;34.32
34197;BME280;36594;45.192;5.722;2023-04-25T14:55:48;98815.93;;;24.25;34.29
34197;BME280;36594;45.192;5.722;2023-04-25T14:58:38;98818.16;;;24.28;34.29
34197;BME280;36594;45.192;5.722;2023-04-25T15:01:28;98823.62;;;24.26;34.33
34197;BME280;36594;45.192;5.722;2023-04-25T15:04:15;98821.16;;;24.24;34.33